| time (UTC) | temp F | wind direction | speed knots | gust knots | rain 1hr in | rain 24hr in | rain mn in | humidity % | barometer mb |
| 20260507183605 | 54 | 167 | 1.7 | 4.3 | 0.00 | 0.00 | 0.00 | 68 | 1007.6 |
| 20260507182705 | 54 | 170 | 1.7 | 5.2 | 0.00 | 0.00 | 0.00 | 67 | 1007.6 |
| 20260507181805 | 54 | 165 | 1.7 | 4.3 | 0.00 | 0.00 | 0.00 | 68 | 1007.6 |
| 20260507180905 | 54 | 168 | 1.7 | 5.2 | 0.00 | 0.00 | 0.00 | 68 | 1007.6 |
| 20260507180027 | 54 | 161 | 1.7 | 4.3 | 0.00 | 0.00 | 0.00 | 68 | 1007.6 |
| 20260507175426 | 55 | 165 | 1.7 | 4.3 | 0.00 | 0.00 | 0.00 | 68 | 1007.5 |
| 20260507174505 | 54 | 171 | 1.7 | 4.3 | 0.00 | 0.00 | 0.00 | 68 | 1007.7 |
| 20260507173605 | 54 | 166 | 0.9 | 3.5 | 0.00 | 0.00 | 0.00 | 69 | 1007.6 |
| 20260507172705 | 54 | 165 | 0.9 | 2.6 | 0.00 | 0.00 | 0.00 | 68 | 1007.6 |
| 20260507171805 | 55 | 159 | 1.7 | 3.5 | 0.00 | 0.00 | 0.00 | 69 | 1007.6 |
| 20260507170906 | 55 | 158 | 1.7 | 4.3 | 0.00 | 0.00 | 0.00 | 68 | 1007.7 |
| 20260507170005 | 55 | 163 | 2.6 | 7.8 | 0.00 | 0.00 | 0.00 | 68 | 1007.8 |
| 20260507165405 | 55 | 158 | 3.5 | 7.8 | 0.00 | 0.00 | 0.00 | 68 | 1007.8 |
| 20260507164505 | 55 | 161 | 2.6 | 6.1 | 0.00 | 0.00 | 0.00 | 68 | 1007.9 |
| 20260507163605 | 54 | 153 | 2.6 | 6.1 | 0.00 | 0.00 | 0.00 | 68 | 1007.9 |
| 20260507162705 | 54 | 158 | 2.6 | 7.0 | 0.00 | 0.00 | 0.00 | 68 | 1007.9 |
| 20260507161826 | 54 | 158 | 2.6 | 6.1 | 0.00 | 0.00 | 0.00 | 69 | 1008.0 |
| 20260507160905 | 54 | 158 | 1.7 | 6.1 | 0.00 | 0.00 | 0.00 | 70 | 1008.1 |
| 20260507160005 | 54 | 156 | 2.6 | 7.0 | 0.00 | 0.00 | 0.00 | 69 | 1008.1 |
| 20260507155405 | 54 | 154 | 2.6 | 7.0 | 0.00 | 0.00 | 0.00 | 71 | 1008.2 |
| 20260507154505 | 53 | 152 | 2.6 | 4.3 | 0.00 | 0.00 | 0.00 | 70 | 1008.2 |
| 20260507153605 | 53 | 154 | 2.6 | 7.0 | 0.00 | 0.00 | 0.00 | 71 | 1008.3 |
| 20260507152705 | 53 | 168 | 1.7 | 4.3 | 0.00 | 0.00 | 0.00 | 71 | 1008.3 |
| 20260507151826 | 53 | 158 | 1.7 | 4.3 | 0.00 | 0.00 | 0.00 | 71 | 1008.5 |
| 20260507150905 | 52 | 160 | 1.7 | 5.2 | 0.00 | 0.00 | 0.00 | 71 | 1008.4 |
| 20260507150027 | 52 | 178 | 2.6 | 7.0 | 0.00 | 0.00 | 0.00 | 71 | 1008.4 |
| 20260507145405 | 52 | 169 | 3.5 | 8.7 | 0.00 | 0.00 | 0.00 | 70 | 1008.6 |
| 20260507144506 | 52 | 165 | 3.5 | 8.7 | 0.00 | 0.00 | 0.00 | 70 | 1008.6 |
| 20260507143605 | 52 | 170 | 2.6 | 7.8 | 0.00 | 0.00 | 0.00 | 70 | 1008.6 |
| 20260507142705 | 52 | 167 | 2.6 | 7.8 | 0.00 | 0.00 | 0.00 | 70 | 1008.7 |
| 20260507141826 | 52 | 171 | 2.6 | 6.1 | 0.00 | 0.00 | 0.00 | 71 | 1008.7 |
| 20260507140926 | 52 | 170 | 2.6 | 7.0 | 0.00 | 0.00 | 0.00 | 71 | 1008.8 |
| 20260507140025 | 53 | 163 | 3.5 | 8.7 | 0.00 | 0.00 | 0.00 | 71 | 1008.8 |
| 20260507135405 | 52 | 162 | 3.5 | 8.7 | 0.00 | 0.00 | 0.00 | 70 | 1008.8 |
| 20260507134504 | 52 | 157 | 4.3 | 10.4 | 0.00 | 0.00 | 0.00 | 70 | 1008.9 |
| 20260507133604 | 53 | 167 | 2.6 | 4.3 | 0.00 | 0.00 | 0.00 | 73 | 1009.0 |
| 20260507132704 | 52 | 170 | 2.6 | 7.0 | 0.00 | 0.00 | 0.00 | 74 | 1009.0 |
| 20260507131805 | 52 | 166 | 3.5 | 8.7 | 0.00 | 0.00 | 0.00 | 73 | 1009.0 |
| 20260507130927 | 52 | 163 | 3.5 | 8.7 | 0.00 | 0.00 | 0.00 | 73 | 1009.0 |
| 20260507130005 | 52 | 165 | 3.5 | 8.7 | 0.00 | 0.00 | 0.00 | 73 | 1008.9 |
| 20260507125404 | 52 | 164 | 3.5 | 9.6 | 0.00 | 0.00 | 0.00 | 73 | 1008.9 |
| 20260507124504 | 52 | 168 | 4.3 | 10.4 | 0.00 | 0.00 | 0.00 | 72 | 1009.0 |
| 20260507123625 | 52 | 162 | 5.2 | 10.4 | 0.00 | 0.00 | 0.00 | 73 | 1008.8 |
| 20260507122706 | 53 | 164 | 3.5 | 8.7 | 0.00 | 0.00 | 0.00 | 72 | 1008.9 |
| 20260507121804 | 53 | 162 | 3.5 | 8.7 | 0.00 | 0.00 | 0.00 | 73 | 1008.7 |
| 20260507120904 | 53 | 161 | 4.3 | 10.4 | 0.00 | 0.00 | 0.00 | 70 | 1008.9 |
| 20260507120005 | 53 | 167 | 3.5 | 8.7 | 0.00 | 0.00 | 0.00 | 70 | 1009.0 |
| 20260507115404 | 53 | 165 | 4.3 | 8.7 | 0.00 | 0.00 | 0.00 | 71 | 1009.0 |
| 20260507114504 | 52 | 158 | 4.3 | 10.4 | 0.00 | 0.00 | 0.00 | 71 | 1009.0 |
| 20260507113604 | 53 | 163 | 4.3 | 12.2 | 0.00 | 0.00 | 0.00 | 71 | 1009.0 |
| 20260507112704 | 53 | 156 | 5.2 | 10.4 | 0.00 | 0.00 | 0.00 | 71 | 1009.1 |
| 20260507111805 | 52 | 159 | 4.3 | 10.4 | 0.00 | 0.00 | 0.00 | 73 | 1009.0 |
| 20260507110904 | 52 | 156 | 4.3 | 9.6 | 0.00 | 0.00 | 0.00 | 72 | 1009.1 |
| 20260507110005 | 52 | 157 | 4.3 | 8.7 | 0.00 | 0.00 | 0.00 | 76 | 1009.2 |
| 20260507105404 | 51 | 158 | 4.3 | 9.6 | 0.00 | 0.00 | 0.00 | 76 | 1009.1 |
| 20260507104504 | 50 | 159 | 4.3 | 8.7 | 0.00 | 0.00 | 0.00 | 75 | 1009.3 |
| 20260507103625 | 49 | 155 | 4.3 | 9.6 | 0.00 | 0.00 | 0.00 | 77 | 1009.4 |
| 20260507102704 | 50 | 164 | 4.3 | 8.7 | 0.00 | 0.00 | 0.00 | 78 | 1009.2 |
| 20260507101804 | 49 | 163 | 3.5 | 8.7 | 0.00 | 0.00 | 0.00 | 78 | 1009.4 |
| 20260507100904 | 47 | 160 | 3.5 | 7.8 | 0.00 | 0.00 | 0.00 | 80 | 1009.4 |
| 20260507100005 | 47 | 159 | 3.5 | 7.8 | 0.00 | 0.00 | 0.00 | 80 | 1009.5 |
| 20260507095425 | 46 | 154 | 3.5 | 8.7 | 0.00 | 0.00 | 0.00 | 80 | 1009.5 |
| 20260507094504 | 46 | 169 | 1.7 | 5.2 | 0.00 | 0.00 | 0.00 | 82 | 1009.5 |
| 20260507093625 | 46 | 172 | 2.6 | 4.3 | 0.00 | 0.00 | 0.00 | 82 | 1009.5 |
| 20260507092704 | 45 | 161 | 2.6 | 7.8 | 0.00 | 0.00 | 0.00 | 82 | 1009.5 |
| 20260507091826 | 45 | 161 | 2.6 | 5.2 | 0.00 | 0.00 | 0.00 | 82 | 1009.5 |
| 20260507090904 | 45 | 159 | 3.5 | 7.0 | 0.00 | 0.00 | 0.00 | 82 | 1009.6 |
| 20260507090005 | 44 | 163 | 2.6 | 7.0 | 0.00 | 0.00 | 0.00 | 82 | 1009.6 |
| 20260507085404 | 44 | 165 | 1.7 | 7.0 | 0.00 | 0.00 | 0.00 | 82 | 1009.6 |
| 20260507084504 | 44 | 161 | 2.6 | 5.2 | 0.00 | 0.00 | 0.00 | 82 | 1009.6 |
| 20260507083604 | 43 | 169 | 1.7 | 5.2 | 0.00 | 0.00 | 0.00 | 83 | 1009.6 |
| 20260507082726 | 43 | 177 | 1.7 | 7.0 | 0.00 | 0.00 | 0.00 | 83 | 1009.6 |
| 20260507081804 | 43 | 168 | 2.6 | 7.0 | 0.00 | 0.00 | 0.00 | 82 | 1009.6 |
| 20260507080904 | 43 | 168 | 1.7 | 5.2 | 0.00 | 0.00 | 0.00 | 82 | 1009.5 |
| 20260507080004 | 43 | 162 | 2.6 | 6.1 | 0.00 | 0.00 | 0.00 | 82 | 1009.6 |
| 20260507075404 | 43 | 166 | 2.6 | 7.8 | 0.00 | 0.00 | 0.00 | 82 | 1009.6 |
| 20260507074525 | 43 | 164 | 2.6 | 6.1 | 0.00 | 0.00 | 0.00 | 82 | 1009.6 |
| 20260507073604 | 43 | 161 | 2.6 | 5.2 | 0.00 | 0.00 | 0.00 | 83 | 1009.6 |
| 20260507072704 | 43 | 167 | 1.7 | 4.3 | 0.00 | 0.00 | 0.00 | 83 | 1009.5 |
| 20260507071804 | 43 | 175 | 2.6 | 4.3 | 0.00 | 0.00 | 0.00 | 83 | 1009.5 |
| 20260507070904 | 42 | 170 | 2.6 | 5.2 | 0.00 | 0.00 | 0.00 | 84 | 1009.4 |
| 20260507070007 | 42 | 166 | 1.7 | 4.3 | 0.00 | 0.00 | 0.00 | 84 | 1009.5 |
| 20260507065403 | 42 | 155 | 1.7 | 4.3 | 0.00 | 0.00 | 0.00 | 84 | 1009.5 |
| 20260507064504 | 42 | 164 | 1.7 | 4.3 | 0.00 | 0.00 | 0.00 | 84 | 1009.4 |
| 20260507063603 | 42 | 157 | 1.7 | 4.3 | 0.00 | 0.00 | 0.00 | 84 | 1009.4 |
| 20260507062703 | 41 | 168 | 1.7 | 3.5 | 0.00 | 0.00 | 0.00 | 84 | 1009.5 |
| 20260507061803 | 41 | 170 | 1.7 | 3.5 | 0.00 | 0.00 | 0.00 | 85 | 1009.5 |
| 20260507060903 | 41 | 155 | 1.7 | 4.3 | 0.00 | 0.00 | 0.00 | 85 | 1009.4 |
| 20260507060003 | 40 | 161 | 0.9 | 3.5 | 0.00 | 0.00 | 0.00 | 85 | 1009.3 |
| 20260507055403 | 40 | 163 | 0.9 | 2.6 | 0.00 | 0.00 | 0.00 | 86 | 1009.2 |
| 20260507054503 | 40 | 170 | 0.9 | 2.6 | 0.00 | 0.00 | 0.00 | 86 | 1009.2 |
| 20260507053603 | 39 | 149 | 0.0 | 1.7 | 0.00 | 0.00 | 0.00 | 86 | 1009.2 |
| 20260507052724 | 38 | 150 | 0.9 | 1.7 | 0.00 | 0.00 | 0.00 | 86 | 1009.2 |
| 20260507051804 | 38 | 152 | 0.9 | 2.6 | 0.00 | 0.00 | 0.00 | 85 | 1009.2 |
| 20260507050903 | 37 | 148 | 0.9 | 2.6 | 0.00 | 0.00 | 0.00 | 85 | 1009.2 |
| 20260507050003 | 37 | 128 | 0.0 | 1.7 | 0.00 | 0.00 | 0.00 | 85 | 1009.2 |
| 20260507045403 | 37 | 124 | 0.0 | 1.7 | 0.00 | 0.00 | 0.00 | 85 | 1009.2 |
| 20260507044503 | 37 | 109 | 0.0 | 0.9 | 0.00 | 0.00 | 0.00 | 85 | 1009.3 |
| 20260507043603 | 37 | 0 | 0.0 | 0.0 | 0.00 | 0.00 | 0.00 | 85 | 1009.2 |
| 20260507042707 | 36 | 103 | 0.0 | 0.9 | 0.00 | 0.00 | 0.00 | 84 | 1009.2 |
| 20260507041807 | 36 | 0 | 0.0 | 0.0 | 0.00 | 0.00 | 0.00 | 84 | 1009.2 |
| 20260507040907 | 36 | 0 | 0.0 | 0.0 | 0.00 | 0.00 | 0.00 | 84 | 1009.2 |
| 20260507040007 | 36 | 0 | 0.0 | 0.0 | 0.00 | 0.00 | 0.00 | 84 | 1009.2 |
| 20260507035407 | 36 | 0 | 0.0 | 0.0 | 0.00 | 0.00 | 0.00 | 84 | 1009.2 |
| 20260507034528 | 36 | 0 | 0.0 | 0.0 | 0.00 | 0.00 | 0.00 | 83 | 1009.3 |
| 20260507033607 | 36 | 0 | 0.0 | 0.0 | 0.00 | 0.00 | 0.00 | 83 | 1009.3 |
| 20260507032707 | 36 | 0 | 0.0 | 0.0 | 0.00 | 0.00 | 0.00 | 83 | 1009.4 |
| 20260507031807 | 36 | 0 | 0.0 | 0.0 | 0.00 | 0.00 | 0.00 | 83 | 1009.4 |
| 20260507030907 | 36 | 0 | 0.0 | 0.0 | 0.00 | 0.00 | 0.00 | 83 | 1009.4 |
| 20260507030008 | 36 | 0 | 0.0 | 0.0 | 0.00 | 0.00 | 0.00 | 83 | 1009.3 |
| 20260507025407 | 36 | 0 | 0.0 | 0.0 | 0.00 | 0.00 | 0.00 | 83 | 1009.4 |
| 20260507024507 | 36 | 0 | 0.0 | 0.0 | 0.00 | 0.00 | 0.00 | 83 | 1009.4 |
| 20260507023607 | 36 | 0 | 0.0 | 0.0 | 0.00 | 0.00 | 0.00 | 82 | 1009.5 |
| 20260507022707 | 36 | 0 | 0.0 | 0.0 | 0.00 | 0.00 | 0.00 | 82 | 1009.4 |
| 20260507021808 | 36 | 0 | 0.0 | 0.0 | 0.00 | 0.00 | 0.00 | 82 | 1009.4 |
| 20260507020906 | 36 | 0 | 0.0 | 0.0 | 0.00 | 0.00 | 0.00 | 81 | 1009.4 |
| 20260507020027 | 36 | 0 | 0.0 | 0.0 | 0.00 | 0.00 | 0.00 | 81 | 1009.4 |
| 20260507015407 | 36 | 0 | 0.0 | 0.0 | 0.00 | 0.00 | 0.00 | 81 | 1009.5 |
| 20260507014507 | 36 | 0 | 0.0 | 0.0 | 0.00 | 0.00 | 0.00 | 81 | 1009.4 |
| 20260507013607 | 36 | 0 | 0.0 | 0.0 | 0.00 | 0.00 | 0.00 | 81 | 1009.5 |
| 20260507012706 | 36 | 0 | 0.0 | 0.0 | 0.00 | 0.00 | 0.00 | 81 | 1009.6 |
| 20260507011827 | 36 | 0 | 0.0 | 0.0 | 0.00 | 0.00 | 0.00 | 80 | 1009.6 |
| 20260507010906 | 37 | 0 | 0.0 | 0.0 | 0.00 | 0.00 | 0.00 | 80 | 1009.6 |
| 20260507010006 | 37 | 0 | 0.0 | 0.0 | 0.00 | 0.00 | 0.00 | 80 | 1009.6 |
| 20260507005427 | 37 | 0 | 0.0 | 0.0 | 0.00 | 0.00 | 0.00 | 80 | 1009.6 |
| 20260507004527 | 37 | 0 | 0.0 | 0.0 | 0.00 | 0.00 | 0.00 | 80 | 1009.6 |
| 20260507003606 | 37 | 0 | 0.0 | 0.0 | 0.00 | 0.00 | 0.00 | 79 | 1009.6 |
| 20260507002706 | 38 | 0 | 0.0 | 0.0 | 0.00 | 0.00 | 0.00 | 79 | 1009.6 |
| 20260507001806 | 38 | 0 | 0.0 | 0.0 | 0.00 | 0.00 | 0.00 | 78 | 1009.6 |
| 20260507000927 | 38 | 0 | 0.0 | 0.0 | 0.00 | 0.00 | 0.00 | 78 | 1009.8 |
| 20260507000007 | 38 | 0 | 0.0 | 0.0 | 0.00 | 0.00 | 0.00 | 78 | 1009.6 |
| 20260506235408 | 38 | 0 | 0.0 | 0.0 | 0.00 | 0.00 | 0.00 | 78 | 1009.6 |
| 20260506234506 | 39 | 0 | 0.0 | 0.0 | 0.00 | 0.00 | 0.00 | 78 | 1009.6 |
| 20260506233627 | 39 | 0 | 0.0 | 0.0 | 0.00 | 0.00 | 0.00 | 78 | 1009.7 |
| 20260506232707 | 39 | 0 | 0.0 | 0.0 | 0.00 | 0.00 | 0.00 | 77 | 1009.8 |
| 20260506231806 | 39 | 0 | 0.0 | 0.0 | 0.00 | 0.00 | 0.00 | 77 | 1009.8 |
| 20260506230906 | 40 | 0 | 0.0 | 0.0 | 0.00 | 0.00 | 0.00 | 76 | 1009.9 |
| 20260506230006 | 40 | 0 | 0.0 | 0.0 | 0.00 | 0.00 | 0.00 | 75 | 1009.8 |
| 20260506225406 | 40 | 0 | 0.0 | 0.0 | 0.00 | 0.00 | 0.00 | 74 | 1009.9 |
| 20260506224527 | 40 | 0 | 0.0 | 0.0 | 0.00 | 0.00 | 0.00 | 73 | 1009.9 |
| 20260506223627 | 41 | 0 | 0.0 | 0.0 | 0.00 | 0.00 | 0.00 | 72 | 1009.9 |
| 20260506222706 | 41 | 0 | 0.0 | 0.0 | 0.00 | 0.00 | 0.00 | 72 | 1009.8 |
| 20260506221806 | 41 | 0 | 0.0 | 0.0 | 0.00 | 0.00 | 0.00 | 72 | 1009.9 |
| 20260506220907 | 42 | 0 | 0.0 | 0.0 | 0.00 | 0.00 | 0.00 | 71 | 1009.9 |
| 20260506220006 | 42 | 0 | 0.0 | 0.0 | 0.00 | 0.00 | 0.00 | 71 | 1009.9 |
| 20260506215406 | 42 | 0 | 0.0 | 0.0 | 0.00 | 0.00 | 0.00 | 71 | 1009.9 |
| 20260506214506 | 42 | 0 | 0.0 | 0.0 | 0.00 | 0.00 | 0.00 | 71 | 1009.8 |
| 20260506213627 | 42 | 0 | 0.0 | 0.0 | 0.00 | 0.00 | 0.00 | 70 | 1009.8 |
| 20260506212706 | 43 | 75 | 0.0 | 0.9 | 0.00 | 0.00 | 0.00 | 70 | 1009.8 |
| 20260506211806 | 43 | 0 | 0.0 | 0.0 | 0.00 | 0.00 | 0.00 | 69 | 1009.8 |
| 20260506210906 | 43 | 0 | 0.0 | 0.0 | 0.00 | 0.00 | 0.00 | 69 | 1009.9 |
| 20260506210006 | 44 | 0 | 0.0 | 0.0 | 0.00 | 0.00 | 0.00 | 68 | 1009.9 |
| 20260506205406 | 44 | 0 | 0.0 | 0.0 | 0.00 | 0.00 | 0.00 | 68 | 1009.8 |
| 20260506204506 | 44 | 75 | 0.0 | 0.9 | 0.00 | 0.00 | 0.00 | 68 | 1009.7 |
| 20260506203605 | 44 | 0 | 0.0 | 0.0 | 0.00 | 0.00 | 0.00 | 67 | 1009.8 |
| 20260506202727 | 45 | 0 | 0.0 | 0.0 | 0.00 | 0.00 | 0.00 | 67 | 1009.8 |
| 20260506201805 | 45 | 75 | 0.0 | 0.9 | 0.00 | 0.00 | 0.00 | 66 | 1009.7 |
| 20260506200905 | 45 | 75 | 0.0 | 0.9 | 0.00 | 0.00 | 0.00 | 66 | 1009.8 |
| 20260506200006 | 46 | 71 | 0.0 | 0.9 | 0.00 | 0.00 | 0.00 | 66 | 1009.8 |
| 20260506195405 | 46 | 71 | 0.0 | 0.9 | 0.00 | 0.00 | 0.00 | 66 | 1009.8 |
| 20260506194505 | 46 | 83 | 0.0 | 2.6 | 0.00 | 0.00 | 0.00 | 65 | 1009.7 |
| 20260506193605 | 46 | 86 | 0.0 | 2.6 | 0.00 | 0.00 | 0.00 | 65 | 1009.5 |
| 20260506192726 | 47 | 87 | 0.0 | 1.7 | 0.00 | 0.00 | 0.00 | 65 | 1009.5 |
| 20260506191805 | 47 | 91 | 0.0 | 1.7 | 0.00 | 0.00 | 0.00 | 64 | 1009.7 |
| 20260506190905 | 47 | 101 | 0.0 | 2.6 | 0.00 | 0.00 | 0.00 | 64 | 1009.4 |
| 20260506190006 | 47 | 105 | 0.9 | 3.5 | 0.00 | 0.00 | 0.00 | 64 | 1009.5 |
| 20260506185405 | 47 | 95 | 0.9 | 3.5 | 0.00 | 0.00 | 0.00 | 64 | 1009.4 |
| 20260506184505 | 48 | 122 | 0.9 | 3.5 | 0.00 | 0.00 | 0.00 | 63 | 1009.5 |